Milford on Sea, United Kingdom
Current Conditions -  °F | °C
As of 1:20 PM on Tuesday 21 Oct 2014 (Local Time) from EGHH Reporting Station
Scattered Clouds Scattered Clouds  
Wind Chill: 57°   Ceiling: Unl
Heat Index: 57°   Visibility: 6mi
Dew Point: 41°   Wind: 30mph
Humidity: 55%   Direction: 310°NW
Pressure: 29.83"   Gusts: NA
Location:  50.73°N, 1.59°W
Report Text: EGHH 211220Z 31026KT 9999 SCT041 14/05 Q1010
Loading
Personal Weather Stations






























Interactive Weather Map
Tropical Storm Tracking
New forecast layout! Learn more

10-Day Weather Forecast

Advertisements
Track Severe Weather on mobile